sensor_id;sensor_type;location;lat;lon;timestamp;pressure;altitude;pressure_sealevel;temperature;humidity
45525;BME280;31437;58.350;13.828;2023-04-15T00:00:59;99893.06;;;21.00;71.65
45525;BME280;31437;58.350;13.828;2023-04-15T00:03:25;99889.53;;;21.00;71.82
45525;BME280;31437;58.350;13.828;2023-04-15T00:05:50;99889.53;;;21.00;71.86
45525;BME280;31437;58.350;13.828;2023-04-15T00:08:16;99894.88;;;21.00;71.78
45525;BME280;31437;58.350;13.828;2023-04-15T00:10:41;99893.19;;;20.99;71.76
45525;BME280;31437;58.350;13.828;2023-04-15T00:13:08;99896.69;;;20.99;71.72
45525;BME280;31437;58.350;13.828;2023-04-15T00:15:33;99891.38;;;20.99;71.58
45525;BME280;31437;58.350;13.828;2023-04-15T00:17:58;99884.38;;;20.98;71.70
45525;BME280;31437;58.350;13.828;2023-04-15T00:20:24;99882.72;;;20.97;71.86
45525;BME280;31437;58.350;13.828;2023-04-15T00:22:49;99882.84;;;20.96;71.67
45525;BME280;31437;58.350;13.828;2023-04-15T00:25:14;99885.53;;;20.96;71.71
45525;BME280;31437;58.350;13.828;2023-04-15T00:27:39;99888.19;;;20.96;71.65
45525;BME280;31437;58.350;13.828;2023-04-15T00:30:05;99893.53;;;20.96;71.51
45525;BME280;31437;58.350;13.828;2023-04-15T00:32:31;99890.84;;;20.96;71.62
45525;BME280;31437;58.350;13.828;2023-04-15T00:34:56;99893.69;;;20.94;71.53
45525;BME280;31437;58.350;13.828;2023-04-15T00:37:21;99891.84;;;20.95;71.49
45525;BME280;31437;58.350;13.828;2023-04-15T00:39:47;99896.34;;;20.94;71.47
45525;BME280;31437;58.350;13.828;2023-04-15T00:42:12;99900.00;;;20.93;71.24
45525;BME280;31437;58.350;13.828;2023-04-15T00:44:37;99906.16;;;20.94;71.10
45525;BME280;31437;58.350;13.828;2023-04-15T00:47:02;99903.66;;;20.92;71.02
45525;BME280;31437;58.350;13.828;2023-04-15T00:49:28;99893.97;;;20.91;71.03
45525;BME280;31437;58.350;13.828;2023-04-15T00:51:54;99896.63;;;20.91;71.07
45525;BME280;31437;58.350;13.828;2023-04-15T00:54:20;99898.66;;;20.89;71.08
45525;BME280;31437;58.350;13.828;2023-04-15T00:56:46;99912.81;;;20.90;71.14
45525;BME280;31437;58.350;13.828;2023-04-15T00:59:12;99893.31;;;20.89;71.01
45525;BME280;31437;58.350;13.828;2023-04-15T01:01:37;99891.63;;;20.88;71.05
45525;BME280;31437;58.350;13.828;2023-04-15T01:04:03;99894.28;;;20.88;70.72
45525;BME280;31437;58.350;13.828;2023-04-15T01:06:31;99895.28;;;20.87;70.83
45525;BME280;31437;58.350;13.828;2023-04-15T01:08:57;99897.44;;;20.83;70.88
45525;BME280;31437;58.350;13.828;2023-04-15T01:11:23;99894.59;;;20.85;70.83
45525;BME280;31437;58.350;13.828;2023-04-15T01:13:49;99908.78;;;20.85;70.66
45525;BME280;31437;58.350;13.828;2023-04-15T01:16:15;99905.25;;;20.85;70.85
45525;BME280;31437;58.350;13.828;2023-04-15T01:18:41;99908.94;;;20.84;70.58
45525;BME280;31437;58.350;13.828;2023-04-15T01:21:06;99913.44;;;20.83;70.58
45525;BME280;31437;58.350;13.828;2023-04-15T01:23:34;99909.09;;;20.82;70.50
45525;BME280;31437;58.350;13.828;2023-04-15T01:26:00;99910.91;;;20.82;70.61
45525;BME280;31437;58.350;13.828;2023-04-15T01:28:26;99910.91;;;20.82;70.37
45525;BME280;31437;58.350;13.828;2023-04-15T01:31:08;99912.75;;;20.81;70.44
45525;BME280;31437;58.350;13.828;2023-04-15T01:33:33;99910.41;;;20.78;70.36
45525;BME280;31437;58.350;13.828;2023-04-15T01:35:59;99911.22;;;20.79;70.39
45525;BME280;31437;58.350;13.828;2023-04-15T01:38:25;99913.88;;;20.79;70.32
45525;BME280;31437;58.350;13.828;2023-04-15T01:40:50;99918.38;;;20.78;70.37
45525;BME280;31437;58.350;13.828;2023-04-15T01:43:15;99920.22;;;20.78;70.36
45525;BME280;31437;58.350;13.828;2023-04-15T01:45:41;99923.88;;;20.77;70.36
45525;BME280;31437;58.350;13.828;2023-04-15T01:48:06;99915.91;;;20.77;70.21
45525;BME280;31437;58.350;13.828;2023-04-15T01:50:32;99924.88;;;20.76;70.06
45525;BME280;31437;58.350;13.828;2023-04-15T01:52:58;99922.19;;;20.76;70.04
45525;BME280;31437;58.350;13.828;2023-04-15T01:55:23;99932.19;;;20.74;70.08
45525;BME280;31437;58.350;13.828;2023-04-15T01:57:48;99929.66;;;20.72;70.08
45525;BME280;31437;58.350;13.828;2023-04-15T02:00:13;99929.66;;;20.72;70.05
45525;BME280;31437;58.350;13.828;2023-04-15T02:02:39;99932.50;;;20.71;69.81
45525;BME280;31437;58.350;13.828;2023-04-15T02:05:04;99924.50;;;20.71;69.91
45525;BME280;31437;58.350;13.828;2023-04-15T02:07:30;99929.16;;;20.69;69.83
45525;BME280;31437;58.350;13.828;2023-04-15T02:09:56;99922.13;;;20.68;69.69
45525;BME280;31437;58.350;13.828;2023-04-15T02:12:21;99929.47;;;20.66;69.53
45525;BME280;31437;58.350;13.828;2023-04-15T02:14:46;99925.09;;;20.64;69.61
45525;BME280;31437;58.350;13.828;2023-04-15T02:17:12;99921.59;;;20.64;69.40
45525;BME280;31437;58.350;13.828;2023-04-15T02:19:37;99934.09;;;20.63;69.57
45525;BME280;31437;58.350;13.828;2023-04-15T02:22:03;99938.72;;;20.61;69.41
45525;BME280;31437;58.350;13.828;2023-04-15T02:24:29;99940.75;;;20.59;69.50
45525;BME280;31437;58.350;13.828;2023-04-15T02:26:54;99932.75;;;20.59;69.26
45525;BME280;31437;58.350;13.828;2023-04-15T02:29:20;99937.25;;;20.59;69.43
45525;BME280;31437;58.350;13.828;2023-04-15T02:31:46;99947.03;;;20.58;69.17
45525;BME280;31437;58.350;13.828;2023-04-15T02:34:12;99938.22;;;20.58;69.13
45525;BME280;31437;58.350;13.828;2023-04-15T02:36:38;99944.53;;;20.57;69.08
45525;BME280;31437;58.350;13.828;2023-04-15T02:39:04;99942.72;;;20.57;69.00
45525;BME280;31437;58.350;13.828;2023-04-15T02:41:29;99938.38;;;20.56;68.85
45525;BME280;31437;58.350;13.828;2023-04-15T02:43:55;99945.50;;;20.56;69.03
45525;BME280;31437;58.350;13.828;2023-04-15T02:46:21;99945.69;;;20.54;69.00
45525;BME280;31437;58.350;13.828;2023-04-15T02:48:47;99956.34;;;20.54;69.02
45525;BME280;31437;58.350;13.828;2023-04-15T02:51:13;99954.69;;;20.53;68.96
45525;BME280;31437;58.350;13.828;2023-04-15T02:53:38;99961.81;;;20.53;68.85
45525;BME280;31437;58.350;13.828;2023-04-15T02:56:04;99959.13;;;20.53;68.71
45525;BME280;31437;58.350;13.828;2023-04-15T02:58:30;99965.44;;;20.52;68.80
45525;BME280;31437;58.350;13.828;2023-04-15T03:00:55;99963.63;;;20.52;68.84
45525;BME280;31437;58.350;13.828;2023-04-15T03:03:21;99964.59;;;20.51;68.53
45525;BME280;31437;58.350;13.828;2023-04-15T03:05:46;99967.41;;;20.50;68.51
45525;BME280;31437;58.350;13.828;2023-04-15T03:08:12;99958.59;;;20.49;68.57
45525;BME280;31437;58.350;13.828;2023-04-15T03:10:38;99962.06;;;20.50;68.50
45525;BME280;31437;58.350;13.828;2023-04-15T03:13:03;99966.56;;;20.49;68.47
45525;BME280;31437;58.350;13.828;2023-04-15T03:15:29;99962.25;;;20.48;68.45
45525;BME280;31437;58.350;13.828;2023-04-15T03:17:54;99961.56;;;20.46;68.35
45525;BME280;31437;58.350;13.828;2023-04-15T03:20:20;99966.88;;;20.46;68.36
45525;BME280;31437;58.350;13.828;2023-04-15T03:22:45;99963.38;;;20.46;68.23
45525;BME280;31437;58.350;13.828;2023-04-15T03:25:10;99970.53;;;20.45;68.35
45525;BME280;31437;58.350;13.828;2023-04-15T03:27:36;99968.72;;;20.46;68.22
45525;BME280;31437;58.350;13.828;2023-04-15T03:30:02;99975.88;;;20.45;68.32
45525;BME280;31437;58.350;13.828;2023-04-15T03:32:27;99975.03;;;20.45;68.21
45525;BME280;31437;58.350;13.828;2023-04-15T03:34:52;99972.50;;;20.43;68.19
45525;BME280;31437;58.350;13.828;2023-04-15T03:37:17;99977.69;;;20.45;68.15
45525;BME280;31437;58.350;13.828;2023-04-15T03:39:43;99973.34;;;20.43;68.09
45525;BME280;31437;58.350;13.828;2023-04-15T03:42:08;99974.34;;;20.42;67.94
45525;BME280;31437;58.350;13.828;2023-04-15T03:44:33;99979.81;;;20.41;67.91
45525;BME280;31437;58.350;13.828;2023-04-15T03:46:58;99982.47;;;20.41;67.84
45525;BME280;31437;58.350;13.828;2023-04-15T03:49:24;99985.13;;;20.41;68.08
45525;BME280;31437;58.350;13.828;2023-04-15T03:51:49;99979.97;;;20.39;67.81
45525;BME280;31437;58.350;13.828;2023-04-15T03:54:15;99988.97;;;20.38;67.88
45525;BME280;31437;58.350;13.828;2023-04-15T03:56:40;99989.81;;;20.39;67.80
45525;BME280;31437;58.350;13.828;2023-04-15T03:59:05;99989.81;;;20.39;67.92
45525;BME280;31437;58.350;13.828;2023-04-15T04:01:31;99990.75;;;20.38;67.64
45525;BME280;31437;58.350;13.828;2023-04-15T04:03:56;99995.25;;;20.37;67.77
45525;BME280;31437;58.350;13.828;2023-04-15T04:06:21;99989.94;;;20.37;67.75
45525;BME280;31437;58.350;13.828;2023-04-15T04:08:47;99986.44;;;20.37;67.76
45525;BME280;31437;58.350;13.828;2023-04-15T04:11:12;99990.09;;;20.36;67.59
45525;BME280;31437;58.350;13.828;2023-04-15T04:13:37;99983.94;;;20.35;67.51
45525;BME280;31437;58.350;13.828;2023-04-15T04:16:03;99983.94;;;20.35;67.59
45525;BME280;31437;58.350;13.828;2023-04-15T04:18:29;99992.91;;;20.34;67.61
45525;BME280;31437;58.350;13.828;2023-04-15T04:20:54;99992.91;;;20.34;67.51
45525;BME280;31437;58.350;13.828;2023-04-15T04:23:19;99994.72;;;20.34;67.65
45525;BME280;31437;58.350;13.828;2023-04-15T04:25:45;99992.06;;;20.34;67.41
45525;BME280;31437;58.350;13.828;2023-04-15T04:28:10;99992.91;;;20.34;67.56
45525;BME280;31437;58.350;13.828;2023-04-15T04:30:36;99991.38;;;20.32;67.26
45525;BME280;31437;58.350;13.828;2023-04-15T04:33:02;99991.38;;;20.32;67.36
45525;BME280;31437;58.350;13.828;2023-04-15T04:35:27;99994.03;;;20.32;67.33
45525;BME280;31437;58.350;13.828;2023-04-15T04:37:52;100000.38;;;20.31;67.37
45525;BME280;31437;58.350;13.828;2023-04-15T04:40:17;100000.50;;;20.29;67.35
45525;BME280;31437;58.350;13.828;2023-04-15T04:42:43;99998.00;;;20.28;67.29
45525;BME280;31437;58.350;13.828;2023-04-15T04:45:08;99996.88;;;20.30;67.35
45525;BME280;31437;58.350;13.828;2023-04-15T04:47:34;100002.19;;;20.30;67.35
45525;BME280;31437;58.350;13.828;2023-04-15T04:49:59;100005.81;;;20.29;67.20
45525;BME280;31437;58.350;13.828;2023-04-15T04:52:24;100006.81;;;20.28;67.35
45525;BME280;31437;58.350;13.828;2023-04-15T04:54:50;100008.47;;;20.29;67.25
45525;BME280;31437;58.350;13.828;2023-04-15T04:57:15;100013.28;;;20.26;67.25
45525;BME280;31437;58.350;13.828;2023-04-15T04:59:40;100011.44;;;20.26;67.13
45525;BME280;31437;58.350;13.828;2023-04-15T05:02:06;100021.28;;;20.26;67.14
45525;BME280;31437;58.350;13.828;2023-04-15T05:04:31;100019.59;;;20.25;67.18
45525;BME280;31437;58.350;13.828;2023-04-15T05:06:57;100022.28;;;20.25;67.06
45525;BME280;31437;58.350;13.828;2023-04-15T05:09:23;100026.91;;;20.23;67.01
45525;BME280;31437;58.350;13.828;2023-04-15T05:11:48;100021.56;;;20.23;67.04
45525;BME280;31437;58.350;13.828;2023-04-15T05:14:13;100026.06;;;20.22;67.02
45525;BME280;31437;58.350;13.828;2023-04-15T05:16:38;100032.38;;;20.21;67.12
45525;BME280;31437;58.350;13.828;2023-04-15T05:19:04;100030.56;;;20.22;67.16
45525;BME280;31437;58.350;13.828;2023-04-15T05:21:29;100034.19;;;20.20;67.05
45525;BME280;31437;58.350;13.828;2023-04-15T05:23:55;100026.19;;;20.20;66.98
45525;BME280;31437;58.350;13.828;2023-04-15T05:26:21;100020.88;;;20.20;67.12
45525;BME280;31437;58.350;13.828;2023-04-15T05:28:46;100030.69;;;20.20;67.13
45525;BME280;31437;58.350;13.828;2023-04-15T05:31:11;100027.06;;;20.21;67.05
45525;BME280;31437;58.350;13.828;2023-04-15T05:33:37;100032.53;;;20.19;67.06
45525;BME280;31437;58.350;13.828;2023-04-15T05:36:02;100030.69;;;20.20;67.07
45525;BME280;31437;58.350;13.828;2023-04-15T05:38:27;100027.19;;;20.19;67.09
45525;BME280;31437;58.350;13.828;2023-04-15T05:40:53;100025.38;;;20.20;66.95
45525;BME280;31437;58.350;13.828;2023-04-15T05:43:18;100032.53;;;20.19;66.91
45525;BME280;31437;58.350;13.828;2023-04-15T05:45:43;100019.38;;;20.18;67.03
45525;BME280;31437;58.350;13.828;2023-04-15T05:48:08;100021.88;;;20.19;66.76
45525;BME280;31437;58.350;13.828;2023-04-15T05:50:34;100024.53;;;20.19;67.00
45525;BME280;31437;58.350;13.828;2023-04-15T05:52:59;100035.19;;;20.19;67.00
45525;BME280;31437;58.350;13.828;2023-04-15T05:55:25;100031.53;;;20.20;66.95
45525;BME280;31437;58.350;13.828;2023-04-15T05:57:50;100027.38;;;20.18;66.98
45525;BME280;31437;58.350;13.828;2023-04-15T06:00:16;100032.53;;;20.19;66.65
45525;BME280;31437;58.350;13.828;2023-04-15T06:02:41;100029.16;;;20.17;66.81
45525;BME280;31437;58.350;13.828;2023-04-15T06:05:07;100038.16;;;20.16;66.92
45525;BME280;31437;58.350;13.828;2023-04-15T06:07:34;100043.47;;;20.16;66.74
45525;BME280;31437;58.350;13.828;2023-04-15T06:10:00;100040.81;;;20.16;66.87
45525;BME280;31437;58.350;13.828;2023-04-15T06:12:25;100048.78;;;20.16;66.85
45525;BME280;31437;58.350;13.828;2023-04-15T06:14:50;100044.47;;;20.15;66.65
45525;BME280;31437;58.350;13.828;2023-04-15T06:17:16;100049.78;;;20.15;66.91
45525;BME280;31437;58.350;13.828;2023-04-15T06:19:42;100049.78;;;20.15;66.85
45525;BME280;31437;58.350;13.828;2023-04-15T06:22:08;100049.78;;;20.15;66.79
45525;BME280;31437;58.350;13.828;2023-04-15T06:24:33;100056.94;;;20.15;66.72
45525;BME280;31437;58.350;13.828;2023-04-15T06:27:01;100059.63;;;20.15;66.68
45525;BME280;31437;58.350;13.828;2023-04-15T06:29:26;100056.09;;;20.14;66.62
45525;BME280;31437;58.350;13.828;2023-04-15T06:31:51;100024.91;;;19.97;66.68
45525;BME280;31437;58.350;13.828;2023-04-15T06:34:16;100052.59;;;20.14;66.60
45525;BME280;31437;58.350;13.828;2023-04-15T06:36:42;100065.06;;;20.13;66.76
45525;BME280;31437;58.350;13.828;2023-04-15T06:39:07;100073.91;;;20.14;66.68
45525;BME280;31437;58.350;13.828;2023-04-15T06:41:32;100063.25;;;20.14;66.68
45525;BME280;31437;58.350;13.828;2023-04-15T06:43:58;100063.25;;;20.14;66.68
45525;BME280;31437;58.350;13.828;2023-04-15T06:46:23;100078.38;;;20.13;66.73
45525;BME280;31437;58.350;13.828;2023-04-15T06:48:48;100073.06;;;20.13;66.77
45525;BME280;31437;58.350;13.828;2023-04-15T06:51:14;100077.38;;;20.14;66.66
45525;BME280;31437;58.350;13.828;2023-04-15T06:53:39;100084.53;;;20.14;66.62
45525;BME280;31437;58.350;13.828;2023-04-15T06:56:07;100081.22;;;20.12;66.62
45525;BME280;31437;58.350;13.828;2023-04-15T06:58:32;100079.38;;;20.12;66.59
45525;BME280;31437;58.350;13.828;2023-04-15T07:00:57;100081.22;;;20.12;66.69
45525;BME280;31437;58.350;13.828;2023-04-15T07:03:23;100083.88;;;20.12;66.75
45525;BME280;31437;58.350;13.828;2023-04-15T07:05:48;100091.00;;;20.11;66.69
45525;BME280;31437;58.350;13.828;2023-04-15T07:08:13;100087.38;;;20.12;66.61
45525;BME280;31437;58.350;13.828;2023-04-15T07:10:38;100089.19;;;20.12;66.67
45525;BME280;31437;58.350;13.828;2023-04-15T07:13:04;100086.53;;;20.12;66.69
45525;BME280;31437;58.350;13.828;2023-04-15T07:15:29;100083.00;;;20.11;66.76
45525;BME280;31437;58.350;13.828;2023-04-15T07:17:55;100082.19;;;20.11;66.64
45525;BME280;31437;58.350;13.828;2023-04-15T07:20:20;100088.34;;;20.11;66.67
45525;BME280;31437;58.350;13.828;2023-04-15T07:22:45;100086.81;;;20.09;66.72
45525;BME280;31437;58.350;13.828;2023-04-15T07:25:11;100088.34;;;20.11;66.79
45525;BME280;31437;58.350;13.828;2023-04-15T07:27:36;100089.19;;;20.12;66.62
45525;BME280;31437;58.350;13.828;2023-04-15T07:30:02;100094.38;;;20.13;66.91
45525;BME280;31437;58.350;13.828;2023-04-15T07:32:27;100090.69;;;20.14;66.71
45525;BME280;31437;58.350;13.828;2023-04-15T07:34:52;100095.06;;;20.15;66.95
45525;BME280;31437;58.350;13.828;2023-04-15T07:37:17;100096.72;;;20.16;66.98
45525;BME280;31437;58.350;13.828;2023-04-15T07:39:43;100105.56;;;20.17;67.06
45525;BME280;31437;58.350;13.828;2023-04-15T07:42:08;100101.94;;;20.18;66.90
45525;BME280;31437;58.350;13.828;2023-04-15T07:44:34;100104.44;;;20.19;67.06
45525;BME280;31437;58.350;13.828;2023-04-15T07:47:00;100114.09;;;20.20;67.08
45525;BME280;31437;58.350;13.828;2023-04-15T07:49:26;100121.09;;;20.22;67.03
45525;BME280;31437;58.350;13.828;2023-04-15T07:51:51;100119.28;;;20.22;67.15
45525;BME280;31437;58.350;13.828;2023-04-15T07:54:17;100111.28;;;20.22;67.42
45525;BME280;31437;58.350;13.828;2023-04-15T07:56:42;100112.13;;;20.23;67.48
45525;BME280;31437;58.350;13.828;2023-04-15T07:59:07;100106.97;;;20.21;67.61
45525;BME280;31437;58.350;13.828;2023-04-15T08:01:33;100114.94;;;20.21;68.04
45525;BME280;31437;58.350;13.828;2023-04-15T08:03:59;100114.94;;;20.21;68.32
45525;BME280;31437;58.350;13.828;2023-04-15T08:06:24;100111.59;;;20.19;68.37
45525;BME280;31437;58.350;13.828;2023-04-15T08:08:49;100121.41;;;20.18;68.52
45525;BME280;31437;58.350;13.828;2023-04-15T14:27:52;100231.72;;;20.63;75.25
45525;BME280;31437;58.350;13.828;2023-04-15T14:30:17;100237.34;;;20.87;75.08
45525;BME280;31437;58.350;13.828;2023-04-15T14:32:42;100239.44;;;21.12;75.07
45525;BME280;31437;58.350;13.828;2023-04-15T14:35:08;100235.00;;;21.30;75.44
45525;BME280;31437;58.350;13.828;2023-04-15T14:37:33;100238.69;;;21.47;75.10
45525;BME280;31437;58.350;13.828;2023-04-15T14:39:58;100241.34;;;21.65;75.37
45525;BME280;31437;58.350;13.828;2023-04-15T14:42:24;100247.84;;;21.80;74.89
45525;BME280;31437;58.350;13.828;2023-04-15T14:44:49;100251.63;;;21.95;74.62
45525;BME280;31437;58.350;13.828;2023-04-15T14:47:14;100249.38;;;22.09;74.58
45525;BME280;31437;58.350;13.828;2023-04-15T14:49:40;100253.94;;;22.16;74.35
45525;BME280;31437;58.350;13.828;2023-04-15T14:52:05;100257.69;;;22.23;73.95
45525;BME280;31437;58.350;13.828;2023-04-15T14:54:31;100260.09;;;22.27;73.82
45525;BME280;31437;58.350;13.828;2023-04-15T14:56:56;100261.44;;;22.31;73.76
45525;BME280;31437;58.350;13.828;2023-04-15T14:59:21;100270.13;;;22.33;73.35
45525;BME280;31437;58.350;13.828;2023-04-15T15:01:47;100268.31;;;22.33;73.12
45525;BME280;31437;58.350;13.828;2023-04-15T15:04:12;100270.13;;;22.33;72.88
45525;BME280;31437;58.350;13.828;2023-04-15T15:06:38;100273.00;;;22.39;72.78
45525;BME280;31437;58.350;13.828;2023-04-15T15:09:03;100281.19;;;22.38;72.46
45525;BME280;31437;58.350;13.828;2023-04-15T15:11:29;100275.94;;;22.28;72.18
45525;BME280;31437;58.350;13.828;2023-04-15T15:13:54;100286.31;;;22.31;72.31
45525;BME280;31437;58.350;13.828;2023-04-15T15:16:20;100279.00;;;22.33;72.27
45525;BME280;31437;58.350;13.828;2023-04-15T15:18:45;100275.56;;;22.23;71.98
45525;BME280;31437;58.350;13.828;2023-04-15T15:21:11;100275.78;;;22.12;71.66
45525;BME280;31437;58.350;13.828;2023-04-15T15:23:36;100279.56;;;22.01;71.47
45525;BME280;31437;58.350;13.828;2023-04-15T15:26:01;100280.50;;;21.92;71.54
45525;BME280;31437;58.350;13.828;2023-04-15T15:28:27;100276.91;;;21.83;71.48
45525;BME280;31437;58.350;13.828;2023-04-15T15:30:52;100276.81;;;21.75;71.24
45525;BME280;31437;58.350;13.828;2023-04-15T15:33:17;100276.59;;;21.68;71.16
45525;BME280;31437;58.350;13.828;2023-04-15T15:35:43;100279.72;;;21.64;71.00
45525;BME280;31437;58.350;13.828;2023-04-15T15:38:10;100281.16;;;21.58;70.97
45525;BME280;31437;58.350;13.828;2023-04-15T15:40:35;100288.63;;;21.54;70.93
45525;BME280;31437;58.350;13.828;2023-04-15T15:43:00;100285.44;;;21.51;71.23
45525;BME280;31437;58.350;13.828;2023-04-15T15:45:26;100289.25;;;21.48;71.07
45525;BME280;31437;58.350;13.828;2023-04-15T15:47:52;100291.38;;;21.45;71.29
45525;BME280;31437;58.350;13.828;2023-04-15T15:50:17;100292.53;;;21.42;71.58
45525;BME280;31437;58.350;13.828;2023-04-15T15:52:42;100279.31;;;21.41;71.78
45525;BME280;31437;58.350;13.828;2023-04-15T15:55:08;100297.16;;;21.40;71.86
45525;BME280;31437;58.350;13.828;2023-04-15T15:57:33;100292.81;;;21.39;72.14
45525;BME280;31437;58.350;13.828;2023-04-15T15:59:58;100301.97;;;21.37;72.16
45525;BME280;31437;58.350;13.828;2023-04-15T16:02:24;100302.94;;;21.36;72.18
45525;BME280;31437;58.350;13.828;2023-04-15T16:04:49;100299.56;;;21.33;72.23
45525;BME280;31437;58.350;13.828;2023-04-15T16:07:16;100309.53;;;21.31;71.82
45525;BME280;31437;58.350;13.828;2023-04-15T16:09:42;100311.13;;;21.24;70.76
45525;BME280;31437;58.350;13.828;2023-04-15T16:12:07;100316.91;;;21.20;70.84
45525;BME280;31437;58.350;13.828;2023-04-15T16:14:33;100304.69;;;21.17;70.83
45525;BME280;31437;58.350;13.828;2023-04-15T16:16:58;100320.16;;;21.14;70.38
45525;BME280;31437;58.350;13.828;2023-04-15T16:19:23;100325.78;;;21.10;70.41
45525;BME280;31437;58.350;13.828;2023-04-15T16:21:48;100320.47;;;21.10;70.36
45525;BME280;31437;58.350;13.828;2023-04-15T16:24:14;100315.28;;;21.09;70.14
45525;BME280;31437;58.350;13.828;2023-04-15T16:26:39;100316.25;;;21.08;70.07
45525;BME280;31437;58.350;13.828;2023-04-15T16:29:05;100314.59;;;21.07;70.13
45525;BME280;31437;58.350;13.828;2023-04-15T16:31:30;100320.75;;;21.07;70.20
45525;BME280;31437;58.350;13.828;2023-04-15T16:33:56;100321.75;;;21.06;69.97
45525;BME280;31437;58.350;13.828;2023-04-15T16:36:21;100318.22;;;21.06;70.11
45525;BME280;31437;58.350;13.828;2023-04-15T16:38:46;100328.06;;;21.05;69.85
45525;BME280;31437;58.350;13.828;2023-04-15T16:41:12;100333.38;;;21.05;69.92
45525;BME280;31437;58.350;13.828;2023-04-15T16:43:38;100325.97;;;21.09;69.96
45525;BME280;31437;58.350;13.828;2023-04-15T16:46:03;100335.56;;;21.20;69.96
45525;BME280;31437;58.350;13.828;2023-04-15T16:48:28;100327.81;;;21.36;69.44
45525;BME280;31437;58.350;13.828;2023-04-15T16:50:53;100328.91;;;21.33;68.90
45525;BME280;31437;58.350;13.828;2023-04-15T16:53:19;100325.25;;;21.35;68.96
45525;BME280;31437;58.350;13.828;2023-04-15T16:55:44;100327.75;;;21.46;68.80
45525;BME280;31437;58.350;13.828;2023-04-15T16:58:09;100326.00;;;21.54;68.40
45525;BME280;31437;58.350;13.828;2023-04-15T17:00:35;100331.03;;;21.58;68.02
45525;BME280;31437;58.350;13.828;2023-04-15T17:03:01;100330.72;;;21.61;67.57
45525;BME280;31437;58.350;13.828;2023-04-15T17:05:26;100338.59;;;21.62;67.02
45525;BME280;31437;58.350;13.828;2023-04-15T17:07:51;100328.91;;;21.61;66.73
45525;BME280;31437;58.350;13.828;2023-04-15T17:10:16;100340.88;;;21.57;66.46
45525;BME280;31437;58.350;13.828;2023-04-15T17:12:42;100336.44;;;21.48;66.22
45525;BME280;31437;58.350;13.828;2023-04-15T17:15:07;100339.31;;;21.37;65.79
45525;BME280;31437;58.350;13.828;2023-04-15T17:17:32;100333.84;;;21.28;65.58
45525;BME280;31437;58.350;13.828;2023-04-15T17:19:58;100341.75;;;21.20;65.51
45525;BME280;31437;58.350;13.828;2023-04-15T17:22:23;100336.03;;;21.15;65.38
45525;BME280;31437;58.350;13.828;2023-04-15T17:24:48;100345.47;;;21.09;65.43
45525;BME280;31437;58.350;13.828;2023-04-15T17:27:14;100337.06;;;21.04;65.18
45525;BME280;31437;58.350;13.828;2023-04-15T17:29:39;100340.84;;;21.02;65.17
45525;BME280;31437;58.350;13.828;2023-04-15T17:32:05;100346.47;;;20.99;65.44
45525;BME280;31437;58.350;13.828;2023-04-15T17:34:30;100349.44;;;20.96;65.52
45525;BME280;31437;58.350;13.828;2023-04-15T17:36:55;100355.91;;;20.93;65.87
45525;BME280;31437;58.350;13.828;2023-04-15T17:39:21;100355.19;;;20.91;66.09
45525;BME280;31437;58.350;13.828;2023-04-15T17:41:46;100355.34;;;20.90;66.70
45525;BME280;31437;58.350;13.828;2023-04-15T17:44:11;100355.50;;;20.88;66.90
45525;BME280;31437;58.350;13.828;2023-04-15T17:46:37;100356.47;;;20.87;67.22
45525;BME280;31437;58.350;13.828;2023-04-15T17:49:02;100354.09;;;20.84;67.42
45525;BME280;31437;58.350;13.828;2023-04-15T17:51:29;100361.28;;;20.83;67.97
45525;BME280;31437;58.350;13.828;2023-04-15T17:53:55;100365.91;;;20.81;68.17
45525;BME280;31437;58.350;13.828;2023-04-15T17:56:20;100364.06;;;20.82;68.38
45525;BME280;31437;58.350;13.828;2023-04-15T17:58:46;100364.22;;;20.80;68.70
45525;BME280;31437;58.350;13.828;2023-04-15T18:01:11;100361.69;;;20.79;68.86
45525;BME280;31437;58.350;13.828;2023-04-15T18:03:36;100368.72;;;20.80;69.19
45525;BME280;31437;58.350;13.828;2023-04-15T18:06:02;100360.03;;;20.78;69.78
45525;BME280;31437;58.350;13.828;2023-04-15T18:08:27;100366.19;;;20.78;69.99
45525;BME280;31437;58.350;13.828;2023-04-15T18:10:53;100368.72;;;20.80;70.59
45525;BME280;31437;58.350;13.828;2023-04-15T18:13:18;100373.19;;;20.79;70.72
45525;BME280;31437;58.350;13.828;2023-04-15T18:15:43;100375.84;;;20.79;70.89
45525;BME280;31437;58.350;13.828;2023-04-15T18:18:09;100374.91;;;20.80;71.27
45525;BME280;31437;58.350;13.828;2023-04-15T18:20:34;100375.72;;;20.81;71.46
45525;BME280;31437;58.350;13.828;2023-04-15T18:22:59;100384.56;;;20.81;71.32
45525;BME280;31437;58.350;13.828;2023-04-15T18:25:24;100388.06;;;20.82;71.58
45525;BME280;31437;58.350;13.828;2023-04-15T18:27:50;100389.88;;;20.81;71.77
45525;BME280;31437;58.350;13.828;2023-04-15T18:30:15;100396.06;;;20.82;71.68
45525;BME280;31437;58.350;13.828;2023-04-15T18:32:40;100399.59;;;20.82;71.77
45525;BME280;31437;58.350;13.828;2023-04-15T18:35:06;100407.59;;;20.82;71.74
45525;BME280;31437;58.350;13.828;2023-04-15T18:37:31;100404.91;;;20.82;71.77
45525;BME280;31437;58.350;13.828;2023-04-15T18:39:57;100410.25;;;20.82;71.75
45525;BME280;31437;58.350;13.828;2023-04-15T18:42:23;100414.72;;;20.82;71.64
45525;BME280;31437;58.350;13.828;2023-04-15T18:44:48;100411.91;;;20.83;71.93
45525;BME280;31437;58.350;13.828;2023-04-15T18:47:14;100410.94;;;20.84;71.72
45525;BME280;31437;58.350;13.828;2023-04-15T18:49:39;100417.25;;;20.83;71.84